Terminal Aerodrome Forecast
Issued by NWS Buffalo, NY

Home | Current Version | Previous Version | Text Only | Print | Product List | Glossary On
Versions: 1 2 3 4 5 6 7 8 9 10 11 12 13 14 15 16 17 18 19 20 21 22 23 24 25 26 27 28
000
FTUS41 KBUF 212107 AAA
TAFROC
TAF AMD
KROC 212107Z 2121/2218 32008KT P6SM SCT040
     FM220000 VRB05KT P6SM SCT250
     FM220600 VRB03KT P6SM BKN200
     FM221400 VRB05KT P6SM OVC100=

USA.gov is the U.S. government's official web portal to all federal, state and local government web resources and services.